Terminal Aerodrome Forecast
Issued by NWS

Home | Current Version | Previous Version | Text Only | Print | Product List | Glossary On
Versions: 1 2 3 4 5 6 7 8 9 10 11 12 13 14 15 16 17
000
FTUS42 KTBW 231000 AAA
TAFRSW
TAF AMD
KRSW 231007Z 2310/2406 12007KT P6SM SCT005 BKN015
      TEMPO 2310/2313 OVC005
     FM231500 15014G22KT P6SM SCT015 BKN030
     FM231800 18014G22KT P6SM SCT030 BKN080
     FM232300 17008KT P6SM SCT030 BKN080
     FM240300 16005KT P6SM SCT015=

USA.gov is the U.S. government's official web portal to all federal, state and local government web resources and services.